Chesterfield, North Carolina
Current Conditions -  °F | °C
As of 11:55 AM on Saturday 22 Nov 2014 (Local Time) from KMRN Reporting Station
Clear Clear  
Wind Chill: 45°   Ceiling: Unl
Heat Index: 47°   Visibility: 10mi
Dew Point: 16°   Wind: 5mph
Humidity: 28%   Direction: 220°SW
Pressure: 30.51"   Gusts: NA
Location:  35.7567°N, 81.7518°W
Report Text: KMRN 221655Z AUTO 22004KT 10SM CLR 08/M09 A3051 RMK AO2 T00841091
Loading
Personal Weather Stations






























Interactive Weather Map New forecast layout! Learn more

10-Day Weather Forecast

Advertisements
Track Severe Weather on mobile